Time;durP1;ratioP1;P1;durP2;ratioP2;P2;SDS_P1;SDS_P2;PMS_P1;PMS_P2;Temp;Humidity;BMP_temperature;BMP_pressure;BME280_temperature;BME280_humidity;BME280_pressure;Samples;Min_cycle;Max_cycle;Signal;HPM_P1;HPM_P2
2022/04/12 00:04:30;;;;;;;0.00;0.00;;;;;;;8.03;46.68;99409.28;6307153;22;20098;-80
2022/04/12 00:06:56;;;;;;;0.00;0.00;;;;;;;8.00;46.16;99412.47;6254569;22;20046;-78
2022/04/12 00:09:21;;;;;;;0.00;0.00;;;;;;;7.98;46.04;99411.91;6279164;22;20571;-77
2022/04/12 00:11:46;;;;;;;0.00;0.00;;;;;;;8.00;46.04;99412.47;6306143;22;19995;-77
2022/04/12 00:14:12;;;;;;;0.00;0.00;;;;;;;7.99;46.11;99416.97;6278828;22;20030;-78
2022/04/12 00:16:37;;;;;;;0.00;0.00;;;;;;;8.00;45.81;99409.78;6306039;22;20094;-78
2022/04/12 00:19:03;;;;;;;0.00;0.00;;;;;;;7.99;45.95;99410.84;6278988;22;20340;-78
2022/04/12 00:21:30;;;;;;;0.08;0.08;;;;;;;8.00;45.93;99415.91;6279415;22;20007;-78
2022/04/12 00:23:55;;;;;;;0.00;0.00;;;;;;;8.01;45.67;99409.53;6278780;22;20003;-78
2022/04/12 00:26:21;;;;;;;0.00;0.00;;;;;;;7.98;45.68;99407.38;6278893;22;20148;-78
2022/04/12 00:28:46;;;;;;;1.33;1.33;;;;;;;7.96;45.83;99401.50;6306442;22;19999;-78
2022/04/12 00:31:11;;;;;;;0.00;0.00;;;;;;;7.99;45.09;99398.31;6279195;22;20007;-78
2022/04/12 00:33:37;;;;;;;0.00;0.00;;;;;;;7.95;45.46;99391.09;6278773;22;20086;-78
2022/04/12 00:36:04;;;;;;;0.00;0.00;;;;;;;7.94;45.70;99392.94;6279168;22;20026;-78
2022/04/12 00:38:33;;;;;;;0.00;0.00;;;;;;;7.92;45.62;99388.91;6306520;22;20017;-78
2022/04/12 00:40:59;;;;;;;0.00;0.00;;;;;;;7.95;45.83;99396.44;6278878;22;20010;-77
2022/04/12 01:10:00;;;;;;;0.00;0.00;;;;;;;7.72;45.31;99392.16;6293343;22;20346;-79
2022/04/12 01:16:50;;;;;;;0.00;0.00;;;;;;;7.65;45.84;99403.81;6312320;22;20011;-81
2022/04/12 01:32:47;;;;;;;0.00;0.00;;;;;;;7.57;45.18;99392.78;6312113;22;20023;-81
2022/04/12 01:35:12;;;;;;;0.00;0.00;;;;;;;7.55;45.16;99381.59;6303557;22;20012;-79
2022/04/12 01:37:50;;;;;;;0.00;0.00;;;;;;;7.55;45.54;99397.56;6279542;22;19999;-79
2022/04/12 01:40:26;;;;;;;0.00;0.00;;;;;;;7.53;45.67;99400.44;6279627;22;19995;-79
2022/04/12 02:05:54;;;;;;;0.00;0.00;;;;;;;7.40;44.88;99401.63;6306122;22;20022;-80
2022/04/12 02:08:21;;;;;;;0.00;0.00;;;;;;;7.43;44.84;99389.69;6279687;22;20008;-79
2022/04/12 02:10:47;;;;;;;0.00;0.00;;;;;;;7.43;45.01;99392.34;6279723;22;20353;-80
2022/04/12 02:21:05;;;;;;;0.00;0.00;;;;;;;7.48;44.60;99401.22;6310024;22;20021;-81
2022/04/12 02:31:41;;;;;;;0.00;0.00;;;;;;;7.50;44.86;99398.28;6134649;23;20024;-80
2022/04/12 02:34:40;;;;;;;0.00;0.00;;;;;;;7.47;44.51;99404.91;6041059;23;20018;-80
2022/04/12 02:48:09;;;;;;;0.10;0.10;;;;;;;7.41;45.32;99405.06;6326431;22;20034;-82
2022/04/12 02:54:52;;;;;;;0.00;0.00;;;;;;;7.29;45.73;99405.22;6220506;23;20016;-80
2022/04/12 02:57:32;;;;;;;0.00;0.00;;;;;;;7.27;45.11;99405.44;6184427;23;20095;-79
2022/04/12 03:24:09;;;;;;;0.00;0.00;;;;;;;7.07;46.07;99413.94;6295896;22;20724;-78
2022/04/12 03:36:26;;;;;;;0.00;0.00;;;;;;;6.98;46.62;99404.75;6314923;22;20015;-79
2022/04/12 03:39:18;;;;;;;0.00;0.00;;;;;;;7.01;46.02;99420.22;6183159;22;20071;-82
2022/04/12 03:48:14;;;;;;;0.00;0.00;;;;;;;6.92;46.53;99427.81;6319405;22;20027;-80
2022/04/12 03:50:39;;;;;;;0.00;0.00;;;;;;;7.00;46.23;99426.59;6267811;22;20360;-80
2022/04/12 03:54:00;;;;;;;0.00;0.00;;;;;;;7.14;46.69;99424.41;6292185;22;20030;-80
2022/04/12 04:00:17;;;;;;;0.00;0.00;;;;;;;7.69;45.43;99434.19;6205939;22;20016;-82
2022/04/12 04:06:44;;;;;;;0.00;0.00;;;;;;;8.51;43.66;99448.69;6146105;23;20066;-83
2022/04/12 04:09:31;;;;;;;0.00;0.00;;;;;;;8.93;42.96;99440.00;6193526;23;20021;-87
2022/04/12 04:11:57;;;;;;;0.00;0.00;;;;;;;9.36;43.94;99438.16;6157860;23;20012;-77
2022/04/12 04:14:22;;;;;;;0.00;0.00;;;;;;;9.78;42.05;99447.97;6156446;23;20005;-77
2022/04/12 04:16:47;;;;;;;0.00;0.00;;;;;;;10.24;41.07;99438.50;6131791;23;20006;-76
2022/04/12 04:19:13;;;;;;;0.00;0.00;;;;;;;10.66;40.08;99447.44;6117833;23;20006;-75
2022/04/12 04:21:39;;;;;;;0.00;0.00;;;;;;;11.12;39.47;99442.09;6119608;22;20033;-74
2022/04/12 04:24:05;;;;;;;0.00;0.00;;;;;;;11.57;39.29;99439.59;6119629;23;20351;-73
2022/04/12 04:26:31;;;;;;;0.00;0.00;;;;;;;12.06;38.18;99438.09;6119633;23;20002;-74
2022/04/12 04:28:56;;;;;;;0.00;0.00;;;;;;;12.52;37.06;99447.72;6117912;23;20013;-74
2022/04/12 04:31:22;;;;;;;0.00;0.00;;;;;;;12.92;36.31;99450.38;6119994;23;20006;-75
2022/04/12 04:33:48;;;;;;;0.00;0.00;;;;;;;13.34;35.45;99440.06;6119677;22;20131;-74
2022/04/12 04:36:13;;;;;;;0.00;0.00;;;;;;;13.82;34.73;99453.53;6119982;23;20379;-74
2022/04/12 04:38:38;;;;;;;0.08;0.08;;;;;;;14.28;33.66;99448.66;6119946;23;20013;-74
2022/04/12 04:41:04;;;;;;;0.00;0.00;;;;;;;14.78;32.73;99449.03;6119256;23;20462;-75
2022/04/12 04:43:29;;;;;;;0.00;0.00;;;;;;;15.25;32.30;99454.41;6119928;23;20035;-75
2022/04/12 04:45:55;;;;;;;0.10;0.10;;;;;;;15.67;31.31;99455.25;6119351;23;20080;-74
2022/04/12 04:48:20;;;;;;;0.00;0.00;;;;;;;16.14;31.03;99457.03;6119995;22;20060;-73
2022/04/12 04:50:46;;;;;;;0.00;0.00;;;;;;;16.53;30.15;99461.03;6118058;23;20029;-75
2022/04/12 04:53:12;;;;;;;0.00;0.00;;;;;;;16.87;29.59;99464.28;6119612;23;20002;-73
2022/04/12 04:55:38;;;;;;;0.00;0.00;;;;;;;17.18;28.96;99458.94;6118285;22;20002;-75
2022/04/12 04:58:05;;;;;;;0.00;0.00;;;;;;;17.54;28.40;99468.81;6119844;23;20007;-75
2022/04/12 05:00:32;;;;;;;0.00;0.00;;;;;;;17.86;28.18;99466.84;6119958;23;20642;-75
2022/04/12 05:02:59;;;;;;;0.10;0.10;;;;;;;18.17;27.65;99467.91;6117617;23;20006;-75
2022/04/12 05:05:25;;;;;;;0.00;0.00;;;;;;;18.44;27.32;99466.81;6119526;23;20558;-75
2022/04/12 05:07:52;;;;;;;0.00;0.00;;;;;;;18.72;27.14;99470.00;6119487;23;20002;-75
2022/04/12 05:10:20;;;;;;;0.00;0.00;;;;;;;18.96;26.58;99474.13;6119955;23;20006;-75
2022/04/12 05:12:46;;;;;;;0.00;0.00;;;;;;;19.18;26.33;99478.56;6119004;23;20006;-75
2022/04/12 05:15:12;;;;;;;0.00;0.00;;;;;;;19.45;25.96;99479.25;6119698;23;20033;-75
2022/04/12 05:17:37;;;;;;;0.00;0.00;;;;;;;19.62;25.70;99483.03;6119629;23;20010;-75
2022/04/12 05:20:06;;;;;;;0.00;0.00;;;;;;;19.84;25.95;99482.00;6119209;23;20012;-75
2022/04/12 05:22:31;;;;;;;1.38;0.17;;;;;;;19.92;25.30;99480.34;6119863;23;20013;-75
2022/04/12 05:24:56;;;;;;;0.00;0.00;;;;;;;20.11;25.14;99483.44;6119873;22;20420;-73
2022/04/12 05:27:22;;;;;;;0.08;0.08;;;;;;;20.26;25.36;99481.28;6119851;22;20478;-75
2022/04/12 05:29:48;;;;;;;0.00;0.00;;;;;;;20.37;24.88;99487.09;6119713;23;20089;-72
2022/04/12 05:32:13;;;;;;;0.08;0.08;;;;;;;20.43;24.68;99473.00;6119873;23;20479;-75
2022/04/12 05:34:40;;;;;;;0.10;0.10;;;;;;;20.51;24.49;99476.78;6118085;23;20085;-75
2022/04/12 05:37:05;;;;;;;0.00;0.00;;;;;;;20.51;24.11;99482.22;6119391;23;20189;-74
2022/04/12 05:39:31;;;;;;;0.10;0.10;;;;;;;20.45;24.00;99486.25;6119750;23;20385;-73
2022/04/12 05:42:00;;;;;;;0.10;0.10;;;;;;;20.21;24.59;99481.47;6119496;23;20006;-74
2022/04/12 05:44:33;;;;;;;0.05;0.05;;;;;;;20.10;23.89;99484.59;6119906;23;20087;-74
2022/04/12 05:46:59;;;;;;;0.00;0.00;;;;;;;19.90;24.16;99493.47;6119663;23;20002;-74
2022/04/12 05:49:25;;;;;;;0.10;0.10;;;;;;;19.68;24.02;99492.59;6119773;23;20077;-74
2022/04/12 05:51:50;;;;;;;0.00;0.00;;;;;;;19.58;24.04;99496.47;6119409;22;20085;-74
2022/04/12 05:54:16;;;;;;;0.03;0.03;;;;;;;19.44;24.14;99495.88;6119977;22;20064;-74
2022/04/12 05:56:41;;;;;;;0.10;0.10;;;;;;;19.26;23.91;99493.22;6119670;23;20040;-74
2022/04/12 05:59:07;;;;;;;0.00;0.00;;;;;;;19.05;24.72;99501.22;6119034;23;20042;-74
2022/04/12 06:01:32;;;;;;;0.00;0.00;;;;;;;18.86;24.88;99498.84;6119482;22;20446;-74
2022/04/12 06:03:58;;;;;;;0.00;0.00;;;;;;;18.73;25.35;99497.88;6119296;23;20063;-74
2022/04/12 06:06:23;;;;;;;0.10;0.10;;;;;;;18.55;25.64;99499.78;6119684;22;20006;-74
2022/04/12 06:08:49;;;;;;;0.00;0.00;;;;;;;18.15;25.59;99500.72;6119371;22;20386;-74
2022/04/12 06:11:14;;;;;;;0.05;0.05;;;;;;;18.16;26.04;99513.13;6119289;23;20009;-74
2022/04/12 06:13:39;;;;;;;0.10;0.10;;;;;;;18.01;26.07;99500.81;6119172;22;20002;-74
2022/04/12 06:16:05;;;;;;;0.10;0.10;;;;;;;17.82;25.64;99506.47;6118661;22;20010;-74
2022/04/12 06:18:30;;;;;;;0.00;0.00;;;;;;;17.58;25.79;99506.84;6118982;22;20010;-74
2022/04/12 06:20:56;;;;;;;0.00;0.00;;;;;;;17.52;26.40;99503.47;6117233;22;20452;-74
2022/04/12 06:23:21;;;;;;;0.00;0.00;;;;;;;17.25;26.33;99507.16;6118915;22;20005;-74
2022/04/12 06:25:46;;;;;;;0.35;0.35;;;;;;;17.12;26.70;99508.81;6118506;22;20006;-73
2022/04/12 06:28:12;;;;;;;0.00;0.00;;;;;;;16.99;26.63;99512.38;6118660;23;20013;-74
2022/04/12 06:30:37;;;;;;;0.10;0.10;;;;;;;16.93;26.87;99511.69;6118825;22;20013;-74
2022/04/12 06:33:03;;;;;;;0.10;0.10;;;;;;;16.82;26.60;99505.75;6118536;23;20006;-74
2022/04/12 06:35:28;;;;;;;0.00;0.00;;;;;;;16.76;26.97;99501.53;6118747;23;20009;-75
2022/04/12 06:37:55;;;;;;;0.10;0.10;;;;;;;16.70;27.23;99514.38;6118202;22;20034;-74
2022/04/12 06:40:21;;;;;;;0.22;0.22;;;;;;;16.62;27.18;99518.63;6118312;23;20459;-74
2022/04/12 06:42:48;;;;;;;0.10;0.10;;;;;;;16.52;26.81;99513.44;6118353;23;20077;-74
2022/04/12 06:45:13;;;;;;;0.10;0.10;;;;;;;16.35;27.09;99513.28;6118713;23;20002;-74
2022/04/12 06:47:40;;;;;;;0.00;0.00;;;;;;;16.25;27.86;99519.69;6117343;23;20009;-74
2022/04/12 06:50:06;;;;;;;0.52;0.52;;;;;;;16.06;27.50;99517.09;6118522;23;20010;-74
2022/04/12 06:52:32;;;;;;;0.10;0.10;;;;;;;16.05;28.37;99523.59;6118642;23;20002;-74
2022/04/12 06:54:58;;;;;;;0.10;0.10;;;;;;;16.05;28.64;99523.59;6118375;23;20012;-74
2022/04/12 06:57:24;;;;;;;0.10;0.10;;;;;;;15.91;28.51;99523.59;6118489;23;20095;-75
2022/04/12 06:59:51;;;;;;;0.00;0.00;;;;;;;15.85;28.72;99520.19;6118204;23;20071;-74
2022/04/12 07:02:17;;;;;;;0.10;0.10;;;;;;;15.72;28.88;99526.34;6119228;23;20439;-74
2022/04/12 07:04:42;;;;;;;0.28;0.28;;;;;;;15.68;29.51;99521.56;6119386;23;20009;-74
2022/04/12 07:07:07;;;;;;;0.08;0.08;;;;;;;15.62;28.69;99524.63;6119027;22;20047;-74
2022/04/12 07:09:33;;;;;;;0.00;0.00;;;;;;;15.48;29.04;99522.72;6119356;22;20002;-74
2022/04/12 07:11:59;;;;;;;0.00;0.00;;;;;;;15.44;29.47;99521.72;6119161;22;20013;-74
2022/04/12 07:14:26;;;;;;;0.00;0.00;;;;;;;15.51;28.77;99532.09;6119224;23;20034;-74
2022/04/12 07:16:51;;;;;;;0.00;0.00;;;;;;;15.46;28.62;99518.72;6118775;23;20458;-74
2022/04/12 07:19:17;;;;;;;0.10;0.10;;;;;;;15.52;29.14;99528.31;6119157;23;20006;-74
2022/04/12 07:21:43;;;;;;;0.08;0.08;;;;;;;15.47;29.05;99526.50;6119275;22;20006;-74
2022/04/12 07:24:09;;;;;;;0.10;0.10;;;;;;;15.43;28.90;99527.41;6118535;23;20060;-74
2022/04/12 07:26:36;;;;;;;0.00;0.00;;;;;;;15.39;29.47;99531.78;6118648;23;20438;-74
2022/04/12 07:29:02;;;;;;;0.75;0.75;;;;;;;15.34;29.46;99529.97;6118807;23;20390;-74
2022/04/12 07:31:28;;;;;;;0.13;0.13;;;;;;;15.33;30.39;99525.69;6119078;23;20034;-74
2022/04/12 07:33:53;;;;;;;0.03;0.03;;;;;;;15.35;29.89;99531.56;6118899;22;20432;-74
2022/04/12 07:36:19;;;;;;;0.00;0.00;;;;;;;15.36;30.28;99527.78;6119734;23;20009;-75
2022/04/12 07:38:45;;;;;;;0.00;0.00;;;;;;;15.47;30.14;99534.59;6120464;23;20002;-74
2022/04/12 07:41:10;;;;;;;0.00;0.00;;;;;;;15.48;29.29;99533.50;6119991;23;20403;-74
2022/04/12 07:43:36;;;;;;;0.32;0.32;;;;;;;15.53;29.16;99538.00;6120438;22;20562;-74
2022/04/12 07:46:02;;;;;;;0.00;0.00;;;;;;;15.50;29.47;99528.63;6120153;23;20002;-74
2022/04/12 07:48:27;;;;;;;0.03;0.03;;;;;;;15.49;29.05;99528.91;6119871;23;20009;-75
2022/04/12 07:50:54;;;;;;;0.00;0.00;;;;;;;15.41;30.32;99532.31;6120059;23;20347;-75
2022/04/12 07:53:19;;;;;;;0.30;0.30;;;;;;;15.44;29.40;99523.59;6120317;23;20002;-75
2022/04/12 07:55:45;;;;;;;0.63;0.63;;;;;;;15.45;29.55;99536.81;6120315;23;20009;-75
2022/04/12 07:58:10;;;;;;;0.03;0.03;;;;;;;15.48;29.69;99536.19;6120303;22;20010;-75
2022/04/12 08:00:35;;;;;;;0.03;0.03;;;;;;;15.51;29.29;99532.09;6120406;23;20018;-74
2022/04/12 08:03:01;;;;;;;0.10;0.10;;;;;;;15.56;29.30;99533.91;6120120;22;20339;-75
2022/04/12 08:05:26;;;;;;;0.00;0.00;;;;;;;15.55;29.27;99529.63;6120172;22;20060;-75
2022/04/12 08:07:51;;;;;;;0.05;0.05;;;;;;;15.48;28.62;99520.03;6120237;23;20002;-74
2022/04/12 08:10:18;;;;;;;0.10;0.10;;;;;;;15.44;28.87;99526.31;6120150;23;20002;-75
2022/04/12 08:12:44;;;;;;;0.10;0.10;;;;;;;15.29;30.06;99528.16;6120208;23;20073;-75
2022/04/12 08:15:11;;;;;;;0.05;0.05;;;;;;;15.33;29.89;99515.72;6120015;23;20014;-75
2022/04/12 08:17:37;;;;;;;0.10;0.10;;;;;;;15.09;28.35;99513.16;6120163;23;20020;-74
2022/04/12 08:20:05;;;;;;;0.00;0.00;;;;;;;15.14;29.69;99509.56;6119963;23;20008;-74
2022/04/12 08:22:30;;;;;;;0.20;0.20;;;;;;;15.08;29.19;99514.25;6119851;23;20009;-74
2022/04/12 08:24:56;;;;;;;0.10;0.10;;;;;;;15.10;30.37;99514.75;6119919;23;20010;-75
2022/04/12 08:27:21;;;;;;;0.00;0.00;;;;;;;15.14;29.83;99514.97;6119757;22;20085;-74
2022/04/12 08:29:46;;;;;;;0.05;0.05;;;;;;;15.20;30.79;99509.19;6119980;22;20006;-74
2022/04/12 08:32:12;;;;;;;0.00;0.00;;;;;;;15.25;29.20;99508.31;6120064;22;20052;-74
2022/04/12 08:34:37;;;;;;;0.17;0.17;;;;;;;15.20;28.98;99503.78;6119953;22;20006;-75
2022/04/12 08:37:05;;;;;;;0.00;0.00;;;;;;;15.18;28.59;99502.50;6119889;23;20016;-74
2022/04/12 08:39:31;;;;;;;0.00;0.00;;;;;;;15.27;28.75;99498.03;6120199;23;20487;-74
2022/04/12 08:41:59;;;;;;;0.10;0.10;;;;;;;15.29;29.38;99490.44;6119366;23;20080;-74
2022/04/12 08:44:25;;;;;;;;;;;;;;;15.43;29.21;99493.19;6120118;23;20006;-75
2022/04/12 08:46:50;;;;;;;0.00;0.00;;;;;;;15.35;29.17;99499.25;6119335;23;19931;-74
2022/04/12 08:49:16;;;;;;;0.00;0.00;;;;;;;15.34;29.70;99500.34;6118468;22;20017;-74
2022/04/12 08:51:45;;;;;;;0.00;0.00;;;;;;;15.36;29.21;99493.53;6120044;23;20006;-74
2022/04/12 08:54:11;;;;;;;0.10;0.10;;;;;;;15.36;29.21;99490.06;6119808;23;20014;-75
2022/04/12 08:56:37;;;;;;;0.00;0.00;;;;;;;15.39;30.27;99494.84;6118479;23;20014;-73
2022/04/12 08:59:03;;;;;;;0.20;0.20;;;;;;;15.12;28.12;99476.72;6119476;23;20037;-75
2022/04/12 09:01:28;;;;;;;0.17;0.17;;;;;;;15.09;29.10;99486.22;6119627;23;20009;-73
2022/04/12 09:03:54;;;;;;;0.10;0.10;;;;;;;15.04;29.04;99486.31;6120025;23;20006;-73
2022/04/12 09:06:20;;;;;;;0.35;0.35;;;;;;;14.89;27.41;99481.94;6119506;22;20439;-72
2022/04/12 09:08:45;;;;;;;0.60;0.30;;;;;;;14.87;29.00;99479.56;6119774;23;20017;-74
2022/04/12 09:11:14;;;;;;;0.08;0.08;;;;;;;14.85;27.76;99476.34;6119408;23;20361;-74
2022/04/12 09:13:40;;;;;;;0.10;0.10;;;;;;;14.85;28.21;99467.47;6119923;23;20037;-73
2022/04/12 09:16:09;;;;;;;0.08;0.08;;;;;;;14.86;28.12;99463.69;6119540;23;20002;-75
2022/04/12 09:18:39;;;;;;;0.10;0.10;;;;;;;14.96;28.08;99468.91;6118066;23;20009;-73
2022/04/12 09:21:21;;;;;;;0.10;0.10;;;;;;;14.98;28.27;99453.25;6119276;23;20336;-73
2022/04/12 09:23:51;;;;;;;0.10;0.10;;;;;;;15.00;28.16;99456.47;6119904;23;20016;-73
2022/04/12 09:26:27;;;;;;;0.10;0.10;;;;;;;15.01;28.65;99449.16;6119613;23;20020;-73
2022/04/12 09:28:55;;;;;;;0.10;0.10;;;;;;;15.04;27.42;99457.47;6119937;23;20393;-74
2022/04/12 09:31:22;;;;;;;0.10;0.10;;;;;;;15.09;26.97;99453.06;6119458;23;20089;-73
2022/04/12 09:33:49;;;;;;;0.10;0.10;;;;;;;15.00;27.15;99444.88;6119648;23;20002;-73
2022/04/12 09:36:15;;;;;;;0.20;0.20;;;;;;;15.10;26.30;99446.59;6119429;23;20010;-73
2022/04/12 09:38:42;;;;;;;0.10;0.10;;;;;;;15.12;27.83;99441.72;6119711;23;20033;-73
2022/04/12 09:41:10;;;;;;;0.00;0.00;;;;;;;15.16;28.27;99445.41;6119467;23;20005;-73
2022/04/12 09:43:40;;;;;;;4.35;0.70;;;;;;;15.22;27.65;99441.53;6119853;23;20002;-75
2022/04/12 09:46:06;;;;;;;0.10;0.10;;;;;;;15.19;27.85;99442.91;6119485;23;20006;-75
2022/04/12 09:48:35;;;;;;;1.25;0.47;;;;;;;15.02;27.30;99427.31;6119781;23;20012;-73
2022/04/12 09:51:01;;;;;;;0.10;0.10;;;;;;;15.02;28.38;99423.84;6119582;23;20002;-73
2022/04/12 09:53:40;;;;;;;0.00;0.00;;;;;;;15.01;26.76;99425.75;6119934;22;20032;-72
2022/04/12 09:56:22;;;;;;;0.00;0.00;;;;;;;14.98;25.73;99407.47;6119606;23;20042;-73
2022/04/12 09:58:53;;;;;;;0.10;0.10;;;;;;;14.97;27.24;99403.19;6119177;23;20002;-75
2022/04/12 10:01:19;;;;;;;0.00;0.00;;;;;;;15.06;27.05;99422.16;6119475;23;20387;-74
2022/04/12 10:03:52;;;;;;;0.00;0.00;;;;;;;14.98;26.89;99404.78;6119547;23;20006;-73
2022/04/12 10:06:21;;;;;;;0.10;0.10;;;;;;;14.98;26.25;99404.78;6117688;22;20010;-73
2022/04/12 10:08:51;;;;;;;0.00;0.00;;;;;;;14.99;26.12;99392.91;6119652;23;20473;-73
2022/04/12 10:11:18;;;;;;;0.10;0.10;;;;;;;14.97;27.10;99391.63;6119668;23;20014;-73
2022/04/12 10:13:44;;;;;;;0.00;0.00;;;;;;;14.97;27.49;99387.03;6119563;23;20002;-73
2022/04/12 10:16:15;;;;;;;0.10;0.10;;;;;;;14.99;27.39;99390.22;6119124;23;20006;-73
2022/04/12 10:18:41;;;;;;;0.10;0.10;;;;;;;15.07;27.16;99390.63;6119532;23;20116;-73
2022/04/12 10:21:07;;;;;;;0.10;0.10;;;;;;;15.10;26.30;99385.47;6119272;23;20014;-73
2022/04/12 10:23:34;;;;;;;0.45;0.45;;;;;;;15.17;26.43;99385.03;6119360;23;20079;-73
2022/04/12 10:26:00;;;;;;;0.10;0.10;;;;;;;15.19;25.96;99372.88;6119277;23;20009;-73
2022/04/12 10:28:29;;;;;;;0.10;0.10;;;;;;;15.15;26.24;99374.56;6119235;23;20006;-73
2022/04/12 10:31:19;;;;;;;0.00;0.00;;;;;;;15.28;26.74;99359.53;6119062;23;20010;-73
2022/04/12 10:34:09;;;;;;;0.00;0.00;;;;;;;15.29;26.40;99371.88;6119553;23;20010;-73
2022/04/12 10:37:08;;;;;;;0.10;0.10;;;;;;;15.30;25.92;99365.41;6119494;23;20002;-73
2022/04/12 10:39:35;;;;;;;0.10;0.10;;;;;;;15.32;26.94;99357.81;6118046;23;20033;-74
2022/04/12 10:42:09;;;;;;;0.00;0.00;;;;;;;15.12;25.89;99345.53;6117302;23;20081;-74
2022/04/12 10:44:40;;;;;;;0.10;0.10;;;;;;;15.21;26.44;99353.75;6119498;23;20458;-74
2022/04/12 10:47:19;;;;;;;0.08;0.08;;;;;;;15.25;27.17;99343.16;6117010;22;20006;-73
2022/04/12 10:49:52;;;;;;;0.00;0.00;;;;;;;15.15;25.07;99336.88;6119692;23;20002;-73
2022/04/12 10:52:17;;;;;;;0.10;0.10;;;;;;;15.17;26.56;99350.03;6119170;23;20012;-73
2022/04/12 10:54:43;;;;;;;0.00;0.00;;;;;;;15.19;24.79;99340.53;6118950;23;20026;-73
2022/04/12 10:57:23;;;;;;;0.00;0.00;;;;;;;15.19;24.82;99342.44;6119120;23;20010;-73
2022/04/12 11:00:03;;;;;;;0.00;0.00;;;;;;;15.12;25.72;99340.13;6118960;23;20022;-73
2022/04/12 11:02:35;;;;;;;0.00;0.00;;;;;;;15.00;26.22;99323.69;6119288;23;20478;-73
2022/04/12 11:05:01;;;;;;;0.10;0.10;;;;;;;14.96;26.25;99320.00;6117738;22;20467;-73
2022/04/12 11:07:32;;;;;;;0.00;0.00;;;;;;;15.00;27.10;99326.38;6118833;23;20010;-73
2022/04/12 11:10:12;;;;;;;0.10;0.10;;;;;;;15.08;26.93;99316.81;6119523;23;20317;-74
2022/04/12 11:12:42;;;;;;;0.00;0.00;;;;;;;15.11;26.95;99322.41;6120483;22;20511;-75
2022/04/12 11:15:21;;;;;;;0.22;0.22;;;;;;;15.16;26.59;99319.59;6120234;23;20006;-73
2022/04/12 11:17:47;;;;;;;1.00;0.40;;;;;;;15.24;27.48;99311.94;6119880;23;20016;-73
2022/04/12 11:20:22;;;;;;;0.08;0.08;;;;;;;15.35;27.64;99311.41;6119763;23;20006;-73
2022/04/12 11:22:56;;;;;;;0.10;0.10;;;;;;;15.33;27.04;99310.09;6120034;23;20457;-73
2022/04/12 11:25:22;;;;;;;0.10;0.10;;;;;;;15.34;26.04;99304.44;6119934;23;20012;-73
2022/04/12 11:28:08;;;;;;;0.00;0.00;;;;;;;15.32;26.87;99297.75;6119920;23;20073;-74
2022/04/12 11:30:33;;;;;;;0.52;0.52;;;;;;;15.33;27.53;99300.13;6119967;22;20085;-73
2022/04/12 11:32:58;;;;;;;0.10;0.10;;;;;;;15.34;26.61;99279.38;6120247;22;20045;-73
2022/04/12 11:35:24;;;;;;;0.05;0.05;;;;;;;15.35;26.53;99279.06;6118514;22;20067;-73
2022/04/12 11:37:50;;;;;;;0.00;0.00;;;;;;;15.33;26.99;99270.50;6120138;23;20077;-73
2022/04/12 11:40:16;;;;;;;0.00;0.00;;;;;;;15.36;25.99;99283.34;6120031;23;20005;-73
2022/04/12 11:42:43;;;;;;;0.43;0.43;;;;;;;15.38;26.36;99272.28;6119932;23;20405;-73
2022/04/12 11:45:10;;;;;;;0.00;0.00;;;;;;;15.38;26.67;99266.91;6119743;23;20351;-73
2022/04/12 11:47:39;;;;;;;0.13;0.13;;;;;;;15.33;26.78;99265.09;6120093;23;20136;-73
2022/04/12 11:50:13;;;;;;;;;;;;;;;15.43;25.82;99266.78;6120659;23;20002;-73
2022/04/12 11:52:39;;;;;;;0.30;0.30;;;;;;;15.33;25.98;99256.22;6119765;23;19905;-73
2022/04/12 11:55:06;;;;;;;0.10;0.10;;;;;;;15.34;25.24;99261.31;6120065;23;20432;-73
2022/04/12 11:57:31;;;;;;;0.00;0.00;;;;;;;15.34;25.60;99241.66;6119900;23;20052;-73
2022/04/12 11:59:58;;;;;;;0.10;0.10;;;;;;;15.36;26.59;99251.03;6119784;23;20018;-73
2022/04/12 12:02:29;;;;;;;0.30;0.30;;;;;;;15.34;26.73;99245.16;6118511;23;20092;-73
2022/04/12 12:04:59;;;;;;;0.03;0.03;;;;;;;15.32;26.77;99249.25;6120088;23;20077;-73
2022/04/12 12:07:25;;;;;;;0.17;0.17;;;;;;;15.31;27.22;99240.34;6119758;23;20047;-73
2022/04/12 12:09:53;;;;;;;0.17;0.17;;;;;;;15.35;27.30;99245.94;6120008;23;20008;-74
2022/04/12 12:12:19;;;;;;;0.20;0.20;;;;;;;15.37;27.15;99241.84;6119881;23;20006;-73
2022/04/12 12:14:44;;;;;;;0.00;0.00;;;;;;;15.44;27.66;99244.13;6119307;22;20341;-73
2022/04/12 12:17:18;;;;;;;0.00;0.00;;;;;;;15.40;27.41;99223.47;6119196;22;20024;-73
2022/04/12 12:19:44;;;;;;;0.20;0.20;;;;;;;15.42;27.63;99221.28;6119296;23;20009;-73
2022/04/12 12:22:11;;;;;;;0.22;0.22;;;;;;;15.39;27.40;99225.34;6118882;23;20006;-74
2022/04/12 12:24:49;;;;;;;0.00;0.00;;;;;;;15.35;28.42;99227.06;6119339;23;20067;-73
2022/04/12 12:27:14;;;;;;;0.00;0.00;;;;;;;15.35;27.63;99221.69;6119248;23;20029;-74
2022/04/12 12:29:42;;;;;;;0.10;0.10;;;;;;;15.36;28.74;99204.41;6119203;23;20448;-74
2022/04/12 12:32:08;;;;;;;0.10;0.10;;;;;;;15.39;28.04;99193.03;6118850;23;20018;-73
2022/04/12 12:34:35;;;;;;;0.63;0.63;;;;;;;15.46;27.16;99206.09;6119348;23;20329;-75
2022/04/12 12:37:08;;;;;;;0.10;0.10;;;;;;;15.57;28.04;99209.34;6119113;23;20016;-73
2022/04/12 12:39:40;;;;;;;0.10;0.10;;;;;;;15.54;26.91;99197.28;6118871;23;20010;-73
2022/04/12 12:42:07;;;;;;;0.98;0.63;;;;;;;15.62;27.42;99211.94;6118704;23;20502;-73
2022/04/12 12:44:34;;;;;;;0.10;0.10;;;;;;;15.55;27.67;99179.19;6119028;23;20324;-73
2022/04/12 12:47:02;;;;;;;0.13;0.13;;;;;;;15.53;28.07;99193.78;6119218;23;20037;-75
2022/04/12 12:49:36;;;;;;;0.20;0.20;;;;;;;15.64;27.30;99210.50;6118921;23;20398;-75
2022/04/12 12:52:08;;;;;;;0.00;0.00;;;;;;;15.61;26.62;99194.97;6117791;22;20021;-74
2022/04/12 12:54:34;;;;;;;0.13;0.13;;;;;;;15.71;26.43;99202.00;6118881;23;20009;-74
2022/04/12 12:57:01;;;;;;;0.10;0.10;;;;;;;15.70;27.00;99189.63;6119121;23;20035;-74
2022/04/12 12:59:34;;;;;;;0.20;0.20;;;;;;;15.64;25.83;99180.06;6118682;23;20010;-74
2022/04/12 13:02:11;;;;;;;0.22;0.22;;;;;;;15.66;26.78;99197.53;6119264;23;20109;-75
2022/04/12 13:04:38;;;;;;;0.00;0.00;;;;;;;15.77;25.75;99194.59;6119272;23;20006;-74
2022/04/12 13:07:10;;;;;;;0.00;0.00;;;;;;;15.82;27.29;99192.59;6119166;22;20010;-75
2022/04/12 13:09:43;;;;;;;0.00;0.00;;;;;;;15.92;26.14;99191.53;6119190;23;20040;-75
2022/04/12 13:12:10;;;;;;;0.20;0.20;;;;;;;15.97;26.81;99182.53;6119060;23;20507;-75
2022/04/12 13:14:37;;;;;;;0.00;0.00;;;;;;;16.00;26.59;99184.59;6119176;23;20002;-74
2022/04/12 13:17:03;;;;;;;0.10;0.10;;;;;;;16.06;27.95;99177.97;6119588;23;20014;-74
2022/04/12 13:19:32;;;;;;;0.00;0.00;;;;;;;16.12;27.15;99176.72;6119620;23;20013;-74
2022/04/12 13:21:59;;;;;;;0.15;0.15;;;;;;;16.12;26.91;99173.25;6119902;23;20002;-74
2022/04/12 13:24:25;;;;;;;0.17;0.17;;;;;;;16.12;27.20;99170.56;6119271;23;20002;-74
2022/04/12 13:26:50;;;;;;;0.52;0.52;;;;;;;16.14;26.50;99155.66;6118265;22;20336;-75
2022/04/12 13:29:17;;;;;;;1.38;1.08;;;;;;;16.21;26.47;99179.50;6119074;23;20005;-74
2022/04/12 13:31:44;;;;;;;0.10;0.10;;;;;;;16.28;25.95;99173.63;6119736;22;20040;-75
2022/04/12 13:34:09;;;;;;;0.10;0.10;;;;;;;16.22;26.07;99173.00;6119277;23;20009;-75
2022/04/12 13:36:35;;;;;;;0.98;0.57;;;;;;;16.23;25.78;99166.47;6119666;23;20002;-74
2022/04/12 13:39:00;;;;;;;0.10;0.10;;;;;;;16.29;26.11;99176.03;6119567;22;20077;-75
2022/04/12 13:41:26;;;;;;;0.20;0.20;;;;;;;16.22;26.62;99164.91;6119530;23;20014;-75
2022/04/12 13:43:51;;;;;;;0.10;0.10;;;;;;;16.19;27.11;99168.22;6119841;23;20073;-75
2022/04/12 13:46:16;;;;;;;0.10;0.10;;;;;;;16.22;26.42;99164.91;6119473;23;20033;-74
2022/04/12 13:48:42;;;;;;;0.00;0.00;;;;;;;16.17;26.42;99165.81;6119630;22;20033;-75
2022/04/12 13:51:09;;;;;;;0.65;0.65;;;;;;;16.20;26.53;99166.28;6119930;22;20056;-74
2022/04/12 13:53:35;;;;;;;0.10;0.10;;;;;;;16.26;26.23;99160.47;6119609;23;20006;-74
2022/04/12 13:56:01;;;;;;;0.30;0.30;;;;;;;16.27;26.20;99161.25;6119655;23;20056;-75
2022/04/12 13:58:26;;;;;;;0.10;0.10;;;;;;;16.34;26.02;99153.50;6118385;23;20443;-75
2022/04/12 14:00:52;;;;;;;0.22;0.22;;;;;;;16.23;25.57;99150.28;6119192;23;20079;-75
2022/04/12 14:03:17;;;;;;;0.10;0.10;;;;;;;16.26;25.98;99148.84;6119321;23;20002;-75
2022/04/12 14:05:43;;;;;;;0.22;0.22;;;;;;;16.22;26.18;99158.69;6119431;23;20009;-75
2022/04/12 14:08:10;;;;;;;0.00;0.00;;;;;;;16.20;26.98;99158.19;6119313;23;20443;-75